createdAt,value
2017-06-30T00:00:57.769Z,13.10
2017-06-30T00:03:25.284Z,13.10
2017-06-30T00:05:52.794Z,13.10
2017-06-30T00:08:20.326Z,13.10
2017-06-30T00:10:47.841Z,13.00
2017-06-30T00:13:15.370Z,13.00
2017-06-30T00:15:42.881Z,12.90
2017-06-30T00:18:11.193Z,12.90
2017-06-30T00:20:38.705Z,12.80
2017-06-30T00:23:06.238Z,12.80
2017-06-30T00:25:33.765Z,12.80
2017-06-30T00:28:01.319Z,12.80
2017-06-30T00:30:28.848Z,12.80
2017-06-30T00:32:56.385Z,12.80
2017-06-30T00:35:23.932Z,12.80
2017-06-30T00:37:51.473Z,12.70
2017-06-30T00:40:19.145Z,12.70
2017-06-30T00:42:46.662Z,12.70
2017-06-30T00:45:14.960Z,12.70
2017-06-30T00:47:42.480Z,12.70
2017-06-30T00:50:11.522Z,12.60
2017-06-30T00:52:39.037Z,12.60
2017-06-30T00:55:07.337Z,12.60
2017-06-30T00:57:34.855Z,12.60
2017-06-30T01:00:02.368Z,12.60
2017-06-30T01:02:30.630Z,12.60
2017-06-30T01:04:58.137Z,12.60
2017-06-30T01:07:25.670Z,12.60
2017-06-30T01:09:53.205Z,12.60
2017-06-30T01:12:20.736Z,12.50
2017-06-30T01:14:49.017Z,12.50
2017-06-30T01:17:17.337Z,12.50
2017-06-30T01:19:44.860Z,12.50
2017-06-30T01:22:13.142Z,12.50
2017-06-30T01:24:41.441Z,12.50
2017-06-30T01:27:08.962Z,12.50
2017-06-30T01:29:36.490Z,12.50
2017-06-30T01:32:04.005Z,12.60
2017-06-30T01:34:31.544Z,12.50
2017-06-30T01:36:59.833Z,12.60
2017-06-30T01:39:27.365Z,12.60
2017-06-30T01:41:55.653Z,12.60
2017-06-30T01:44:23.961Z,12.50
2017-06-30T01:46:51.481Z,12.50
2017-06-30T01:49:18.997Z,12.50
2017-06-30T01:51:46.537Z,12.50
2017-06-30T01:54:14.050Z,12.50
2017-06-30T01:56:41.607Z,12.50
2017-06-30T01:59:09.131Z,12.50
2017-06-30T02:01:36.679Z,12.50
2017-06-30T02:04:04.191Z,12.40
2017-06-30T02:06:31.770Z,12.40
2017-06-30T02:09:00.052Z,12.30
2017-06-30T02:11:27.564Z,12.30
2017-06-30T02:13:55.103Z,12.30
2017-06-30T02:16:22.669Z,12.20
2017-06-30T02:18:50.206Z,12.20
2017-06-30T02:21:17.716Z,12.20
2017-06-30T02:23:45.242Z,12.20
2017-06-30T02:26:12.758Z,12.10
2017-06-30T02:28:40.306Z,12.10
2017-06-30T02:31:08.586Z,12.10
2017-06-30T02:33:36.867Z,12.10
2017-06-30T02:36:04.397Z,12.10
2017-06-30T02:38:31.917Z,12.10
2017-06-30T02:40:59.449Z,12.10
2017-06-30T02:43:26.971Z,12.10
2017-06-30T02:45:54.505Z,12.20
2017-06-30T02:48:22.017Z,12.10
2017-06-30T02:50:50.318Z,12.20
2017-06-30T02:53:17.829Z,12.10
2017-06-30T02:55:45.342Z,12.20
2017-06-30T02:58:12.889Z,12.20
2017-06-30T03:00:40.408Z,12.40
2017-06-30T03:03:08.709Z,12.50
2017-06-30T03:05:36.229Z,12.50
2017-06-30T03:08:03.761Z,12.50
2017-06-30T03:10:31.274Z,12.60
2017-06-30T03:12:59.575Z,12.70
2017-06-30T03:15:27.093Z,12.70
2017-06-30T03:17:54.629Z,12.80
2017-06-30T03:20:22.143Z,12.80
2017-06-30T03:22:49.658Z,12.90
2017-06-30T03:25:17.200Z,13.00
2017-06-30T03:27:44.717Z,13.00
2017-06-30T03:30:12.365Z,13.00
2017-06-30T03:32:40.647Z,13.00
2017-06-30T03:35:08.193Z,13.00
2017-06-30T03:37:36.461Z,13.00
2017-06-30T03:40:04.768Z,13.00
2017-06-30T03:42:32.294Z,13.00
2017-06-30T03:44:59.828Z,13.00
2017-06-30T03:47:27.340Z,13.00
2017-06-30T03:49:54.920Z,13.00
2017-06-30T03:52:22.456Z,13.00
2017-06-30T03:54:49.969Z,13.00
2017-06-30T03:57:17.513Z,13.00
2017-06-30T03:59:45.025Z,13.00
2017-06-30T04:02:12.557Z,13.10
2017-06-30T04:04:40.082Z,13.10
2017-06-30T04:07:07.624Z,13.20
2017-06-30T04:09:35.133Z,13.30
2017-06-30T04:12:02.676Z,13.50
2017-06-30T04:14:30.189Z,13.70
2017-06-30T04:16:57.706Z,13.80
2017-06-30T04:19:25.237Z,14.00
2017-06-30T04:21:52.755Z,14.30
2017-06-30T04:24:20.299Z,14.70
2017-06-30T04:26:47.805Z,15.20
2017-06-30T04:29:15.332Z,15.40
2017-06-30T04:31:42.862Z,15.50
2017-06-30T04:34:10.412Z,15.40
2017-06-30T04:36:37.927Z,15.30
2017-06-30T04:39:05.436Z,15.30
2017-06-30T04:41:32.969Z,15.40
2017-06-30T04:44:00.483Z,15.70
2017-06-30T04:46:28.013Z,16.10
2017-06-30T04:48:56.298Z,17.00
2017-06-30T04:51:24.593Z,17.10
2017-06-30T04:53:52.116Z,17.00
2017-06-30T04:56:19.657Z,17.40
2017-06-30T04:58:47.174Z,17.20
2017-06-30T05:01:14.728Z,17.10
2017-06-30T05:03:42.252Z,16.90
2017-06-30T05:06:09.765Z,16.50
2017-06-30T05:08:37.352Z,16.20
2017-06-30T05:11:04.881Z,16.00
2017-06-30T05:13:32.418Z,16.00
2017-06-30T05:15:59.937Z,16.40
2017-06-30T05:18:27.476Z,16.60
2017-06-30T05:20:56.652Z,16.40
2017-06-30T05:23:24.199Z,16.50
2017-06-30T05:25:51.717Z,16.40
2017-06-30T05:28:19.235Z,16.20
2017-06-30T05:30:46.772Z,16.20
2017-06-30T05:33:14.282Z,16.30
2017-06-30T05:35:41.814Z,16.60
2017-06-30T05:38:09.332Z,16.60
2017-06-30T05:40:37.636Z,17.00
2017-06-30T05:43:05.153Z,17.00
2017-06-30T05:45:33.461Z,17.70
2017-06-30T05:48:00.997Z,17.70
2017-06-30T05:50:29.282Z,18.40
2017-06-30T05:52:56.832Z,18.40
2017-06-30T05:55:25.122Z,18.00
2017-06-30T05:57:52.685Z,17.90
2017-06-30T06:00:21.033Z,17.60
2017-06-30T06:02:49.407Z,19.50
2017-06-30T06:05:17.705Z,19.40
2017-06-30T06:07:46.012Z,19.30
2017-06-30T06:10:13.641Z,19.30
2017-06-30T06:12:41.929Z,21.10
2017-06-30T06:15:09.465Z,21.10
2017-06-30T06:17:37.752Z,24.50
2017-06-30T06:20:06.065Z,27.40
2017-06-30T06:22:33.583Z,27.30
2017-06-30T06:25:01.882Z,27.30
2017-06-30T06:27:29.408Z,27.30
2017-06-30T06:29:56.945Z,28.80
2017-06-30T06:32:24.463Z,30.80
2017-06-30T06:34:52.008Z,32.00
2017-06-30T06:37:19.516Z,33.00
2017-06-30T06:39:47.030Z,33.80
2017-06-30T06:42:14.566Z,33.00
2017-06-30T06:44:42.864Z,33.90
2017-06-30T06:47:10.416Z,33.90
2017-06-30T06:49:37.933Z,33.00
2017-06-30T06:52:05.477Z,33.00
2017-06-30T06:54:32.992Z,32.20
2017-06-30T06:57:00.552Z,30.90
2017-06-30T06:59:28.833Z,30.60
2017-06-30T07:01:56.381Z,30.60
2017-06-30T07:04:23.900Z,29.90
2017-06-30T07:06:51.429Z,29.30
2017-06-30T07:09:18.965Z,27.60
2017-06-30T07:11:47.242Z,26.50
2017-06-30T07:14:15.543Z,26.10
2017-06-30T07:16:43.058Z,26.00
2017-06-30T07:19:11.355Z,24.60
2017-06-30T07:21:38.880Z,24.50
2017-06-30T07:24:06.421Z,24.20
2017-06-30T07:26:33.936Z,24.20
2017-06-30T07:29:01.450Z,23.90
2017-06-30T07:31:28.986Z,23.30
2017-06-30T07:33:56.517Z,23.70
2017-06-30T07:36:24.059Z,24.90
2017-06-30T07:38:51.579Z,25.60
2017-06-30T07:41:19.120Z,25.60
2017-06-30T07:43:46.663Z,25.30
2017-06-30T07:46:14.206Z,24.20
2017-06-30T07:48:41.738Z,24.00
2017-06-30T07:51:10.028Z,23.60
2017-06-30T07:53:37.573Z,23.60
2017-06-30T07:56:05.892Z,24.50
2017-06-30T07:58:33.429Z,24.50
2017-06-30T08:01:00.961Z,24.30
2017-06-30T08:03:28.518Z,24.20
2017-06-30T08:05:56.814Z,24.90
2017-06-30T08:34:22.071Z,26.00
2017-06-30T08:36:50.027Z,26.00
2017-06-30T08:39:18.023Z,26.80
2017-06-30T08:41:46.075Z,27.10
2017-06-30T08:44:14.390Z,27.00
2017-06-30T08:46:42.598Z,27.70
2017-06-30T08:49:10.714Z,28.10
2017-06-30T08:51:39.372Z,27.50
2017-06-30T08:54:09.223Z,27.10
2017-06-30T08:56:39.060Z,25.30
2017-06-30T09:02:17.198Z,24.40
2017-06-30T09:04:45.537Z,25.80
2017-06-30T09:07:22.894Z,25.80
2017-06-30T09:09:50.472Z,25.60
2017-06-30T09:12:18.053Z,25.50
2017-06-30T09:14:45.619Z,26.10
2017-06-30T09:17:13.168Z,26.40
2017-06-30T09:19:40.740Z,26.10
2017-06-30T09:22:08.282Z,26.20
2017-06-30T09:24:35.876Z,27.40
2017-06-30T09:27:03.439Z,27.90
2017-06-30T09:29:31.001Z,28.80
2017-06-30T09:31:58.566Z,29.00
2017-06-30T09:34:26.115Z,28.60
2017-06-30T09:36:53.696Z,27.90
2017-06-30T09:39:22.065Z,27.90
2017-06-30T09:41:49.634Z,28.00
2017-06-30T09:44:17.191Z,27.80
2017-06-30T09:46:44.784Z,27.80
2017-06-30T09:49:12.328Z,27.70
2017-06-30T09:51:40.813Z,27.60
2017-06-30T09:54:08.375Z,28.00
2017-06-30T09:56:35.912Z,28.40
2017-06-30T09:59:04.256Z,27.70
2017-06-30T10:01:31.797Z,27.70
2017-06-30T10:03:59.347Z,28.00
2017-06-30T10:06:26.879Z,28.10
2017-06-30T10:08:55.221Z,28.60
2017-06-30T10:11:22.764Z,28.60
2017-06-30T10:13:50.328Z,29.00
2017-06-30T10:16:17.869Z,28.20
2017-06-30T10:18:45.425Z,27.30
2017-06-30T10:21:12.973Z,27.20
2017-06-30T10:23:41.290Z,27.50
2017-06-30T10:26:08.900Z,27.50
2017-06-30T10:28:37.456Z,28.40
2017-06-30T10:31:05.017Z,29.00
2017-06-30T10:33:32.559Z,29.30
2017-06-30T10:36:00.139Z,29.50
2017-06-30T10:38:27.735Z,29.30
2017-06-30T10:40:55.267Z,29.70
2017-06-30T10:43:22.809Z,30.40
2017-06-30T10:45:50.345Z,30.50
2017-06-30T10:48:17.918Z,30.00
2017-06-30T10:50:45.447Z,29.90
2017-06-30T10:53:13.016Z,30.20
2017-06-30T10:55:40.536Z,30.40
2017-06-30T10:58:08.859Z,29.30
2017-06-30T11:00:36.376Z,29.20
2017-06-30T11:03:04.662Z,27.70
2017-06-30T11:05:32.966Z,27.10
2017-06-30T11:08:00.486Z,27.10
2017-06-30T11:10:28.797Z,25.90
2017-06-30T11:12:56.329Z,25.90
2017-06-30T11:15:24.645Z,25.90
2017-06-30T11:17:52.179Z,25.90
2017-06-30T11:20:19.732Z,26.00
2017-06-30T11:22:47.282Z,26.30
2017-06-30T11:25:15.619Z,26.20
2017-06-30T11:27:43.153Z,26.20
2017-06-30T11:30:10.675Z,27.00
2017-06-30T11:32:38.988Z,27.70
2017-06-30T11:35:06.516Z,27.60
2017-06-30T11:37:34.826Z,27.90
2017-06-30T11:40:02.366Z,27.90
2017-06-30T11:42:29.913Z,28.50
2017-06-30T11:44:57.441Z,28.80
2017-06-30T11:47:24.995Z,28.40
2017-06-30T11:49:52.515Z,28.40
2017-06-30T11:52:20.075Z,28.40
2017-06-30T11:54:47.641Z,28.60
2017-06-30T11:57:15.166Z,28.90
2017-06-30T11:59:43.478Z,29.20
2017-06-30T12:02:11.001Z,29.20
2017-06-30T12:04:39.310Z,27.90
2017-06-30T12:07:06.830Z,27.90
2017-06-30T12:09:35.144Z,27.70
2017-06-30T12:12:02.669Z,27.70
2017-06-30T12:14:30.974Z,28.20
2017-06-30T12:16:58.502Z,28.20
2017-06-30T12:19:26.822Z,28.70
2017-06-30T12:21:54.342Z,28.70
2017-06-30T12:24:21.886Z,28.90
2017-06-30T12:26:50.198Z,29.40
2017-06-30T12:29:17.726Z,29.30
2017-06-30T12:31:46.056Z,29.50
2017-06-30T12:34:13.583Z,29.40
2017-06-30T12:36:41.258Z,29.50
2017-06-30T12:39:08.778Z,29.30
2017-06-30T12:41:36.339Z,28.60
2017-06-30T12:44:04.638Z,29.00
2017-06-30T12:46:32.162Z,29.00
2017-06-30T12:48:59.758Z,29.30
2017-06-30T12:51:27.291Z,29.10
2017-06-30T12:53:55.610Z,26.20
2017-06-30T12:56:23.156Z,26.20
2017-06-30T12:58:50.710Z,25.50
2017-06-30T13:01:18.268Z,25.70
2017-06-30T13:03:45.821Z,25.40
2017-06-30T13:06:14.107Z,27.10
2017-06-30T13:08:41.672Z,27.10
2017-06-30T13:11:09.325Z,27.10
2017-06-30T13:13:36.847Z,27.20
2017-06-30T13:16:04.402Z,27.30
2017-06-30T13:18:31.937Z,27.20
2017-06-30T13:20:59.494Z,28.10
2017-06-30T13:23:27.023Z,28.20
2017-06-30T13:25:54.605Z,27.80
2017-06-30T13:28:22.117Z,27.60
2017-06-30T13:30:50.453Z,27.90
2017-06-30T13:33:18.011Z,27.90
2017-06-30T13:35:45.544Z,27.50
2017-06-30T13:38:13.096Z,27.40
2017-06-30T13:40:40.626Z,26.80
2017-06-30T13:43:08.934Z,26.60
2017-06-30T13:45:36.513Z,26.60
2017-06-30T13:48:04.074Z,27.60
2017-06-30T13:50:31.630Z,28.00
2017-06-30T13:52:59.191Z,27.70
2017-06-30T13:55:26.750Z,26.60
2017-06-30T13:57:54.280Z,26.20
2017-06-30T14:00:21.819Z,26.00
2017-06-30T14:02:50.106Z,26.60
2017-06-30T14:05:18.422Z,27.40
2017-06-30T14:07:45.950Z,27.40
2017-06-30T14:10:13.504Z,28.00
2017-06-30T14:12:41.056Z,28.20
2017-06-30T14:15:09.377Z,28.40
2017-06-30T14:17:36.910Z,28.40
2017-06-30T14:20:04.443Z,28.60
2017-06-30T14:22:32.768Z,27.80
2017-06-30T14:25:00.298Z,27.80
2017-06-30T14:27:27.861Z,28.10
2017-06-30T14:29:55.391Z,28.60
2017-06-30T14:32:22.934Z,29.00
2017-06-30T14:34:50.471Z,28.90
2017-06-30T14:37:18.035Z,28.80
2017-06-30T14:39:45.555Z,28.80
2017-06-30T14:45:03.512Z,28.30
2017-06-30T14:47:31.260Z,28.30
2017-06-30T14:49:59.446Z,28.20
2017-06-30T14:52:28.781Z,27.80
2017-06-30T14:54:59.942Z,27.60
2017-06-30T14:57:28.623Z,27.10
2017-06-30T14:59:58.000Z,27.10
2017-06-30T15:02:27.606Z,26.20
2017-06-30T15:04:56.788Z,26.20
2017-06-30T15:07:26.216Z,25.90
2017-06-30T15:09:56.867Z,25.70
2017-06-30T15:12:26.773Z,25.70
2017-06-30T15:14:56.271Z,25.90
2017-06-30T15:17:26.296Z,26.00
2017-06-30T15:19:56.252Z,26.00
2017-06-30T15:22:24.721Z,26.10
2017-06-30T15:24:54.392Z,25.70
2017-06-30T15:27:24.155Z,25.60
2017-06-30T15:32:43.003Z,25.30
2017-06-30T15:35:10.535Z,24.80
2017-06-30T15:37:38.150Z,24.30
2017-06-30T15:40:06.445Z,23.90
2017-06-30T15:42:34.020Z,23.90
2017-06-30T15:45:01.562Z,23.60
2017-06-30T15:47:29.106Z,23.60
2017-06-30T15:49:56.670Z,23.80
2017-06-30T15:52:24.213Z,24.20
2017-06-30T15:54:52.527Z,25.70
2017-06-30T15:57:20.052Z,25.70
2017-06-30T15:59:48.366Z,26.50
2017-06-30T16:02:15.888Z,26.50
2017-06-30T16:04:44.197Z,26.30
2017-06-30T16:07:11.727Z,26.30
2017-06-30T16:09:40.057Z,25.70
2017-06-30T16:12:07.592Z,25.70
2017-06-30T16:14:35.131Z,25.60
2017-06-30T16:17:02.697Z,25.50
2017-06-30T16:19:30.230Z,25.60
2017-06-30T16:21:58.559Z,25.40
2017-06-30T16:24:26.091Z,25.30
2017-06-30T16:26:53.668Z,25.30
2017-06-30T16:29:21.198Z,25.00
2017-06-30T16:31:48.970Z,25.00
2017-06-30T16:34:16.516Z,25.00
2017-06-30T16:36:44.813Z,24.20
2017-06-30T16:39:12.362Z,24.20
2017-06-30T16:41:39.895Z,24.60
2017-06-30T16:44:07.457Z,25.10
2017-06-30T16:46:35.775Z,25.50
2017-06-30T16:49:03.323Z,25.50
2017-06-30T16:51:30.855Z,25.50
2017-06-30T16:53:59.187Z,25.60
2017-06-30T16:56:26.739Z,25.60
2017-06-30T16:58:54.270Z,25.30
2017-06-30T17:01:21.818Z,25.00
2017-06-30T17:03:50.130Z,24.30
2017-06-30T17:06:17.745Z,24.30
2017-06-30T17:08:46.047Z,24.00
2017-06-30T17:11:13.602Z,23.90
2017-06-30T17:13:41.127Z,23.70
2017-06-30T17:16:08.711Z,23.60
2017-06-30T17:18:37.012Z,23.90
2017-06-30T17:21:04.584Z,23.80
2017-06-30T17:23:32.110Z,24.00
2017-06-30T17:25:59.647Z,23.80
2017-06-30T17:28:27.973Z,24.00
2017-06-30T17:30:55.527Z,23.90
2017-06-30T17:33:23.084Z,24.20
2017-06-30T17:35:50.619Z,24.10
2017-06-30T17:38:18.932Z,24.10
2017-06-30T17:40:46.481Z,24.10
2017-06-30T17:43:14.045Z,24.20
2017-06-30T17:45:41.575Z,24.30
2017-06-30T17:48:09.904Z,24.20
2017-06-30T17:50:37.449Z,24.20
2017-06-30T17:53:04.983Z,24.20
2017-06-30T17:55:32.534Z,23.90
2017-06-30T17:58:00.067Z,23.90
2017-06-30T18:00:28.386Z,23.40
2017-06-30T18:02:55.916Z,23.40
2017-06-30T18:05:24.269Z,22.90
2017-06-30T18:07:51.803Z,22.90
2017-06-30T18:10:19.367Z,22.90
2017-06-30T18:12:46.908Z,22.80
2017-06-30T18:15:14.542Z,22.60
2017-06-30T18:17:42.072Z,22.40
2017-06-30T18:20:09.601Z,22.30
2017-06-30T18:22:37.179Z,22.10
2017-06-30T18:25:04.710Z,22.00
2017-06-30T18:27:32.265Z,21.80
2017-06-30T18:29:59.790Z,21.70
2017-06-30T18:32:27.664Z,21.50
2017-06-30T18:34:55.247Z,21.40
2017-06-30T18:37:23.088Z,21.20
2017-06-30T18:39:50.609Z,21.10
2017-06-30T18:42:18.263Z,20.90
2017-06-30T18:44:46.718Z,20.60
2017-06-30T18:47:14.248Z,20.50
2017-06-30T18:49:41.861Z,20.40
2017-06-30T18:52:09.389Z,20.30
2017-06-30T18:54:36.933Z,20.20
2017-06-30T18:57:04.648Z,20.10
2017-06-30T18:59:32.226Z,19.90
2017-06-30T19:01:59.750Z,19.80
2017-06-30T19:04:27.376Z,19.60
2017-06-30T19:06:54.897Z,19.50
2017-06-30T19:09:22.413Z,19.40
2017-06-30T19:11:49.978Z,19.30
2017-06-30T19:14:17.497Z,19.10
2017-06-30T19:16:45.038Z,19.00
2017-06-30T19:19:13.327Z,18.70
2017-06-30T19:21:41.668Z,18.60
2017-06-30T19:24:09.422Z,18.60
2017-06-30T19:26:36.979Z,18.50
2017-06-30T19:29:04.504Z,18.30
2017-06-30T19:31:32.075Z,18.20
2017-06-30T19:33:59.597Z,18.10
2017-06-30T19:36:30.847Z,17.90
2017-06-30T19:38:58.395Z,17.80
2017-06-30T19:41:26.685Z,17.70
2017-06-30T19:43:54.220Z,17.70
2017-06-30T19:46:21.748Z,17.70
2017-06-30T19:48:49.310Z,17.60
2017-06-30T19:51:16.849Z,17.50
2017-06-30T19:53:44.400Z,17.30
2017-06-30T19:56:11.934Z,17.20
2017-06-30T19:58:41.213Z,17.00
2017-06-30T20:01:08.758Z,17.00
2017-06-30T20:03:36.276Z,16.80
2017-06-30T20:06:03.842Z,16.60
2017-06-30T20:08:31.364Z,16.50
2017-06-30T20:10:58.916Z,16.40
2017-06-30T20:13:27.208Z,16.10
2017-06-30T20:15:54.762Z,16.10
2017-06-30T20:18:22.297Z,16.00
2017-06-30T20:20:50.625Z,16.00
2017-06-30T20:23:18.267Z,16.00
2017-06-30T20:25:45.841Z,16.00
2017-06-30T20:28:15.543Z,16.00
2017-06-30T20:30:43.205Z,16.00
2017-06-30T20:33:10.841Z,16.00
2017-06-30T20:35:39.173Z,15.90
2017-06-30T20:38:07.580Z,15.80
2017-06-30T20:40:35.194Z,15.80
2017-06-30T20:43:02.760Z,15.70
2017-06-30T20:45:30.498Z,15.60
2017-06-30T20:47:58.108Z,15.60
2017-06-30T20:50:25.632Z,15.60
2017-06-30T20:52:53.253Z,15.60
2017-06-30T20:55:20.988Z,15.70
2017-06-30T20:57:48.517Z,15.80
2017-06-30T21:00:16.071Z,15.90
2017-06-30T21:02:43.657Z,16.00
2017-06-30T21:05:11.307Z,16.10
2017-06-30T21:07:38.862Z,16.10
2017-06-30T21:10:06.447Z,16.20
2017-06-30T21:12:34.053Z,16.20
2017-06-30T21:15:01.717Z,16.30
2017-06-30T21:17:29.251Z,16.40
2017-06-30T21:19:56.781Z,16.50
2017-06-30T21:22:24.348Z,16.60
2017-06-30T21:24:51.965Z,16.60
2017-06-30T21:27:19.533Z,16.60
2017-06-30T21:29:47.056Z,16.60
2017-06-30T21:32:15.366Z,16.60
2017-06-30T21:34:42.936Z,16.50
2017-06-30T21:37:10.538Z,16.60
2017-06-30T21:39:38.062Z,16.70
2017-06-30T21:42:05.588Z,16.80
2017-06-30T21:44:33.132Z,16.90
2017-06-30T21:47:01.416Z,16.90
2017-06-30T21:49:28.977Z,16.90
2017-06-30T21:51:56.534Z,16.90
2017-06-30T21:54:24.157Z,16.80
2017-06-30T21:56:51.686Z,16.80
2017-06-30T21:59:19.461Z,16.80
2017-06-30T22:01:47.118Z,16.80
2017-06-30T22:04:14.698Z,16.90
2017-06-30T22:06:42.408Z,16.80
2017-06-30T22:09:10.005Z,16.80
2017-06-30T22:11:37.740Z,16.70
2017-06-30T22:14:05.436Z,16.60
2017-06-30T22:16:33.035Z,16.50
2017-06-30T22:19:00.589Z,16.30
2017-06-30T22:21:28.124Z,16.20
2017-06-30T22:23:55.724Z,15.90
2017-06-30T22:26:23.324Z,15.70
2017-06-30T22:28:50.900Z,15.50
2017-06-30T22:31:18.426Z,15.20
2017-06-30T22:33:45.996Z,14.90
2017-06-30T22:36:13.519Z,14.60
2017-06-30T22:38:41.824Z,14.30
2017-06-30T22:41:09.512Z,14.30
2017-06-30T22:43:37.043Z,14.30
2017-06-30T22:46:04.561Z,14.20
2017-06-30T22:48:32.096Z,14.20
2017-06-30T22:50:59.620Z,14.20
2017-06-30T22:53:27.152Z,14.20
2017-06-30T22:55:55.527Z,14.20
2017-06-30T22:58:23.904Z,14.20
2017-06-30T23:00:52.228Z,14.20
2017-06-30T23:03:19.745Z,14.20
2017-06-30T23:05:48.053Z,14.20
2017-06-30T23:08:15.569Z,14.20
2017-06-30T23:19:23.578Z,14.10
2017-06-30T23:21:51.182Z,14.00
2017-06-30T23:24:18.730Z,14.00
2017-06-30T23:26:46.257Z,14.00
2017-06-30T23:29:13.802Z,14.00
2017-06-30T23:31:41.328Z,14.10
2017-06-30T23:34:09.628Z,14.10
2017-06-30T23:36:37.299Z,14.10
2017-06-30T23:39:04.821Z,14.10
2017-06-30T23:41:32.360Z,14.10
2017-06-30T23:43:59.883Z,14.10
2017-06-30T23:46:27.428Z,14.10
2017-06-30T23:48:54.955Z,14.10
2017-06-30T23:51:23.272Z,14.20
2017-06-30T23:53:50.806Z,14.10
2017-06-30T23:56:18.350Z,14.20
